Time;durP1;ratioP1;P1;durP2;ratioP2;P2;SDS_P1;SDS_P2;PMS_P1;PMS_P2;Temp;Humidity;BMP_temperature;BMP_pressure;BME280_temperature;BME280_humidity;BME280_pressure;Samples;Min_cycle;Max_cycle;Signal;HPM_P1;HPM_P2
2024/01/25 00:01:43;;;;;;;73.00;32.70;;;;;;;1.58;72.25;100848.24;107591;1251;108270;-63
2024/01/25 00:04:12;;;;;;;76.90;33.40;;;;;;;1.53;72.20;100845.08;107540;1251;97733;-64
2024/01/25 00:06:40;;;;;;;82.30;33.70;;;;;;;1.50;72.08;100841.54;107614;1250;97838;-64
2024/01/25 00:09:09;;;;;;;75.90;33.20;;;;;;;1.48;72.36;100841.29;107637;1256;110370;-65
2024/01/25 00:11:37;;;;;;;83.00;35.40;;;;;;;1.46;72.43;100839.25;107531;1251;109577;-65
2024/01/25 00:14:05;;;;;;;88.70;37.10;;;;;;;1.43;72.27;100838.33;107572;1250;107208;-64
2024/01/25 00:16:33;;;;;;;82.10;38.30;;;;;;;1.38;72.32;100838.58;107600;1251;97921;-64
2024/01/25 00:19:02;;;;;;;86.50;38.40;;;;;;;1.37;72.52;100838.64;107619;1250;97771;-64
2024/01/25 00:21:30;;;;;;;78.20;34.40;;;;;;;1.34;72.25;100831.53;107613;1251;111475;-65
2024/01/25 00:23:58;;;;;;;85.10;37.80;;;;;;;1.30;72.59;100832.98;107582;1251;107712;-64
2024/01/25 00:26:27;;;;;;;75.10;34.50;;;;;;;1.29;72.71;100832.15;107609;1254;108399;-64
2024/01/25 00:28:55;;;;;;;78.10;34.20;;;;;;;1.29;72.92;100827.00;107604;1251;97907;-64
2024/01/25 00:31:23;;;;;;;74.50;33.30;;;;;;;1.31;73.15;100824.09;107510;1251;97720;-65
2024/01/25 00:33:52;;;;;;;74.80;34.90;;;;;;;1.34;73.42;100822.52;107568;1251;111754;-64
2024/01/25 00:36:22;;;;;;;86.10;33.60;;;;;;;1.37;73.55;100825.20;107546;1251;108565;-66
2024/01/25 00:38:50;;;;;;;77.60;33.80;;;;;;;1.40;73.93;100822.25;107634;1251;107704;-65
2024/01/25 00:41:19;;;;;;;75.30;33.70;;;;;;;1.46;74.07;100819.45;107561;1251;97893;-66
2024/01/25 00:43:48;;;;;;;72.30;33.50;;;;;;;1.50;74.18;100813.08;107648;1251;97729;-65
2024/01/25 00:46:16;;;;;;;74.30;33.70;;;;;;;1.58;74.31;100815.35;107595;1254;111984;-64
2024/01/25 00:48:45;;;;;;;69.80;32.00;;;;;;;1.63;74.44;100814.52;107654;1250;108476;-64
2024/01/25 00:51:20;;;;;;;77.40;34.20;;;;;;;1.69;74.62;100817.45;107618;1251;108366;-65
2024/01/25 00:53:49;;;;;;;69.80;31.90;;;;;;;1.73;74.51;100816.52;107542;1251;97848;-65
2024/01/25 00:56:18;;;;;;;64.40;30.20;;;;;;;1.77;74.43;100818.09;107681;1251;97731;-65
2024/01/25 00:58:47;;;;;;;66.60;30.60;;;;;;;1.83;74.70;100815.13;107642;1251;111576;-65
2024/01/25 01:01:16;;;;;;;69.50;31.70;;;;;;;1.86;74.72;100810.91;107614;1251;106366;-65
2024/01/25 01:03:45;;;;;;;70.70;31.00;;;;;;;1.91;74.79;100807.65;107570;1252;107340;-63
2024/01/25 01:06:14;;;;;;;61.10;29.00;;;;;;;1.94;74.68;100803.25;107535;1255;98434;-64
2024/01/25 01:08:43;;;;;;;63.60;30.00;;;;;;;1.96;74.61;100797.33;107600;1251;97832;-64
2024/01/25 01:11:11;;;;;;;62.40;26.90;;;;;;;1.96;74.50;100791.32;107620;1251;111353;-65
2024/01/25 01:13:40;;;;;;;62.70;28.40;;;;;;;1.96;74.37;100794.51;107558;1251;107617;-65
2024/01/25 01:16:08;;;;;;;62.00;29.00;;;;;;;1.97;74.41;100792.67;107566;1251;107889;-64
2024/01/25 01:18:38;;;;;;;68.10;29.70;;;;;;;1.99;74.19;100790.05;107572;1254;97877;-66
2024/01/25 01:21:07;;;;;;;62.80;30.20;;;;;;;2.01;74.46;100782.55;107610;1254;97931;-65
2024/01/25 01:23:35;;;;;;;67.90;31.10;;;;;;;1.99;74.27;100782.64;107620;1251;111407;-64
2024/01/25 01:26:04;;;;;;;67.40;29.70;;;;;;;1.97;73.98;100779.55;107601;1250;107675;-64
2024/01/25 01:28:33;;;;;;;67.30;30.30;;;;;;;1.96;74.12;100787.23;107582;1251;108593;-65
2024/01/25 01:31:01;;;;;;;65.30;29.80;;;;;;;1.92;73.95;100780.73;107566;1251;97941;-65
2024/01/25 01:33:30;;;;;;;69.20;30.50;;;;;;;1.89;73.63;100769.04;107646;1251;97837;-65
2024/01/25 01:35:58;;;;;;;64.60;30.90;;;;;;;1.84;73.50;100761.48;107632;1251;110964;-65
2024/01/25 01:38:27;;;;;;;69.90;29.20;;;;;;;1.77;73.45;100761.85;107618;1250;107527;-63
2024/01/25 01:40:55;;;;;;;57.90;29.70;;;;;;;1.70;73.32;100764.66;107582;1251;107270;-64
2024/01/25 01:43:23;;;;;;;59.40;27.60;;;;;;;1.67;73.35;100761.46;107566;1251;97918;-65
2024/01/25 01:45:52;;;;;;;59.50;27.90;;;;;;;1.64;73.46;100758.48;107613;1250;97892;-64
2024/01/25 01:48:21;;;;;;;61.60;29.40;;;;;;;1.61;73.36;100751.91;107548;1252;111798;-63
2024/01/25 01:50:49;;;;;;;62.70;28.60;;;;;;;1.58;73.31;100753.13;107617;1251;106955;-64
2024/01/25 01:53:19;;;;;;;33.10;16.30;;;;;;;1.53;73.30;100748.21;107581;1251;107812;-66
2024/01/25 01:55:47;;;;;;;49.50;22.40;;;;;;;1.52;73.57;100739.29;107531;1251;97915;-64
2024/01/25 01:58:18;;;;;;;56.90;27.10;;;;;;;1.54;73.63;100739.19;107512;1251;98372;-64
2024/01/25 02:00:50;;;;;;;68.30;30.40;;;;;;;1.52;73.46;100738.05;107589;1251;110868;-63
2024/01/25 02:03:19;;;;;;;65.80;28.60;;;;;;;1.49;73.22;100732.00;107521;1250;107296;-64
2024/01/25 02:05:48;;;;;;;60.40;28.40;;;;;;;1.48;73.62;100735.42;107538;1251;106849;-64
2024/01/25 02:08:16;;;;;;;65.10;29.40;;;;;;;1.46;73.63;100734.44;107505;1251;97897;-66
2024/01/25 02:10:45;;;;;;;62.00;28.90;;;;;;;1.46;73.46;100736.73;107558;1254;98362;-64
2024/01/25 02:13:13;;;;;;;67.30;29.70;;;;;;;1.44;73.44;100734.92;107612;1251;111856;-65
2024/01/25 02:15:42;;;;;;;65.60;29.30;;;;;;;1.43;73.44;100731.98;107464;1251;108238;-65
2024/01/25 02:18:10;;;;;;;63.30;30.00;;;;;;;1.42;73.56;100731.82;107510;1251;107701;-64
2024/01/25 02:20:38;;;;;;;66.40;33.10;;;;;;;1.43;74.54;100731.98;107658;1251;98476;-65
2024/01/25 02:23:07;;;;;;;77.20;30.60;;;;;;;1.44;74.47;100729.44;107498;1250;97847;-65
2024/01/25 02:25:35;;;;;;;63.80;29.20;;;;;;;1.47;74.85;100726.98;107570;1251;112554;-65
2024/01/25 02:28:04;;;;;;;58.30;27.00;;;;;;;1.49;75.46;100724.24;107576;1251;108299;-65
2024/01/25 02:30:32;;;;;;;63.40;31.60;;;;;;;1.51;75.93;100731.73;107539;1254;107450;-66
2024/01/25 02:33:01;;;;;;;72.70;32.60;;;;;;;1.53;76.44;100730.89;107607;1250;97885;-63
2024/01/25 02:35:30;;;;;;;66.10;31.10;;;;;;;1.57;76.49;100729.45;107635;1251;97937;-64
2024/01/25 02:37:58;;;;;;;65.20;30.30;;;;;;;1.62;76.27;100729.23;107608;1251;112245;-65
2024/01/25 02:40:26;;;;;;;64.60;29.30;;;;;;;1.66;76.10;100733.62;107566;1250;107867;-65
2024/01/25 02:42:56;;;;;;;63.50;30.40;;;;;;;1.69;76.15;100733.79;107575;1251;108153;-64
2024/01/25 02:45:24;;;;;;;60.10;28.30;;;;;;;1.78;76.34;100734.23;107561;1251;97854;-64
2024/01/25 02:47:52;;;;;;;75.40;31.30;;;;;;;1.82;76.10;100734.89;107607;1251;97707;-65
2024/01/25 02:50:21;;;;;;;67.50;32.00;;;;;;;1.86;76.08;100729.38;107539;1251;111767;-65
2024/01/25 02:52:50;;;;;;;78.20;34.80;;;;;;;1.88;76.11;100723.25;107537;1251;107870;-64
2024/01/25 02:55:19;;;;;;;73.20;33.00;;;;;;;1.94;76.30;100723.31;107541;1251;108448;-65
2024/01/25 02:57:47;;;;;;;63.30;29.60;;;;;;;2.02;76.45;100726.61;107521;1254;97902;-65
2024/01/25 03:00:17;;;;;;;55.50;26.80;;;;;;;2.06;75.96;100726.20;107616;1251;97850;-64
2024/01/25 03:02:45;;;;;;;53.20;24.70;;;;;;;2.08;76.17;100726.10;107548;1251;112239;-63
2024/01/25 03:05:14;;;;;;;45.60;23.60;;;;;;;2.12;75.92;100730.86;107507;1254;108211;-64
2024/01/25 03:07:43;;;;;;;52.00;23.90;;;;;;;2.11;75.83;100725.06;107582;1251;106993;-65
2024/01/25 03:10:12;;;;;;;46.40;24.20;;;;;;;2.13;75.93;100721.77;107512;1251;97839;-64
2024/01/25 03:12:40;;;;;;;50.60;24.40;;;;;;;2.18;76.15;100723.25;107579;1251;97742;-64
2024/01/25 03:15:10;;;;;;;48.60;23.60;;;;;;;2.24;76.10;100723.31;107551;1250;111856;-64
2024/01/25 03:17:39;;;;;;;47.00;24.20;;;;;;;2.25;75.81;100726.11;107603;1250;107879;-64
2024/01/25 03:20:08;;;;;;;50.20;24.20;;;;;;;2.27;75.73;100730.73;107549;1254;108450;-64
2024/01/25 03:22:36;;;;;;;52.00;23.50;;;;;;;2.28;75.72;100740.79;107539;1250;97835;-64
2024/01/25 03:25:05;;;;;;;31.70;15.60;;;;;;;2.24;75.36;100734.08;107578;1253;99161;-65
2024/01/25 03:27:34;;;;;;;52.60;23.80;;;;;;;2.27;75.79;100716.76;107526;1254;112433;-65
2024/01/25 03:30:02;;;;;;;48.30;22.70;;;;;;;2.28;75.75;100715.09;107518;1250;106117;-65
2024/01/25 03:32:30;;;;;;;44.20;21.10;;;;;;;2.27;75.69;100714.98;107540;1250;106741;-64
2024/01/25 03:35:00;;;;;;;70.00;28.80;;;;;;;2.29;75.36;100707.83;107543;1251;97810;-64
2024/01/25 03:37:28;;;;;;;66.00;28.30;;;;;;;2.28;75.51;100702.00;107560;1251;98366;-65
2024/01/25 03:39:56;;;;;;;52.40;26.80;;;;;;;2.28;75.33;100708.58;107602;1251;111678;-65
2024/01/25 03:42:25;;;;;;;55.50;26.30;;;;;;;2.24;75.26;100706.30;107579;1251;108391;-65
2024/01/25 03:44:53;;;;;;;63.60;29.50;;;;;;;2.19;75.49;100707.98;107564;1251;108611;-64
2024/01/25 03:47:21;;;;;;;66.10;30.40;;;;;;;2.14;75.00;100712.17;107565;1251;97919;-65
2024/01/25 03:49:50;;;;;;;84.20;34.60;;;;;;;2.10;74.89;100713.45;107596;1254;97786;-64
2024/01/25 03:52:18;;;;;;;93.00;37.40;;;;;;;2.06;74.75;100711.67;107615;1251;111749;-64
2024/01/25 03:54:46;;;;;;;101.40;39.10;;;;;;;2.02;74.58;100716.15;107609;1251;107903;-65
2024/01/25 03:57:15;;;;;;;119.40;44.20;;;;;;;1.99;74.91;100705.52;107543;1251;108479;-65
2024/01/25 03:59:43;;;;;;;57.60;22.40;;;;;;;1.95;74.99;100712.12;107575;1251;97802;-65
2024/01/25 04:02:12;;;;;;;33.50;15.00;;;;;;;1.95;75.29;100709.11;107586;1251;97841;-64
2024/01/25 04:04:40;;;;;;;72.10;28.90;;;;;;;2.05;75.56;100695.12;107589;1250;110019;-65
2024/01/25 04:07:09;;;;;;;81.60;31.80;;;;;;;2.11;75.20;100684.17;107572;1254;106547;-65
2024/01/25 04:09:38;;;;;;;88.50;33.30;;;;;;;2.15;75.24;100690.18;107500;1251;107464;-64
2024/01/25 04:12:06;;;;;;;86.00;34.10;;;;;;;2.17;75.16;100692.17;107564;1251;97855;-64
2024/01/25 04:14:34;;;;;;;88.80;34.40;;;;;;;2.18;75.16;100698.11;107544;1251;98380;-64
2024/01/25 04:17:03;;;;;;;73.20;30.10;;;;;;;2.21;75.10;100699.95;107586;1250;110914;-64
2024/01/25 04:19:31;;;;;;;89.30;35.00;;;;;;;2.23;75.35;100695.73;107610;1254;108287;-64
2024/01/25 04:22:00;;;;;;;85.10;32.10;;;;;;;2.25;75.62;100692.79;107554;1251;107283;-63
2024/01/25 04:24:28;;;;;;;75.40;30.90;;;;;;;2.28;75.36;100692.11;107609;1251;97821;-64
2024/01/25 04:26:57;;;;;;;61.40;29.10;;;;;;;2.32;75.74;100699.46;107635;1251;97720;-64
2024/01/25 04:29:25;;;;;;;69.40;26.50;;;;;;;2.39;75.68;100699.98;107592;1251;111264;-64
2024/01/25 04:31:53;;;;;;;70.10;29.50;;;;;;;2.44;75.70;100702.57;107589;1251;107428;-65
2024/01/25 04:34:22;;;;;;;58.30;24.80;;;;;;;2.50;75.55;100699.40;107557;1251;108189;-65
2024/01/25 04:36:51;;;;;;;76.10;33.70;;;;;;;2.52;75.53;100704.60;107631;1251;97857;-64
2024/01/25 04:39:19;;;;;;;69.00;28.40;;;;;;;2.57;75.50;100703.95;107604;1251;98340;-65
2024/01/25 04:41:47;;;;;;;22.00;12.10;;;;;;;2.63;75.60;100707.55;107580;1251;112206;-64
2024/01/25 04:44:16;;;;;;;21.70;9.10;;;;;;;2.68;75.39;100709.17;107578;1251;108121;-65
2024/01/25 04:46:44;;;;;;;10.60;5.00;;;;;;;2.74;74.67;100709.57;107565;1251;108407;-63
2024/01/25 04:49:12;;;;;;;13.60;4.40;;;;;;;2.84;73.71;100712.91;107614;1251;97858;-64
2024/01/25 04:51:41;;;;;;;8.90;4.00;;;;;;;2.95;72.85;100714.02;107632;1251;97909;-63
2024/01/25 04:54:12;;;;;;;7.10;4.00;;;;;;;3.06;71.65;100718.75;107601;1251;110611;-64
2024/01/25 04:56:42;;;;;;;10.00;3.90;;;;;;;3.17;70.76;100720.05;107573;1254;107156;-65
2024/01/25 04:59:10;;;;;;;10.10;6.00;;;;;;;3.26;70.04;100726.05;107582;1254;108540;-64
2024/01/25 05:01:38;;;;;;;14.20;9.90;;;;;;;3.35;69.57;100729.63;107579;1250;97822;-65
2024/01/25 05:04:07;;;;;;;7.70;4.80;;;;;;;3.41;68.72;100729.43;107673;1251;97886;-66
2024/01/25 05:06:36;;;;;;;6.10;3.30;;;;;;;3.47;68.63;100727.15;107641;1250;111376;-64
2024/01/25 05:09:06;;;;;;;8.80;5.00;;;;;;;3.52;68.28;100731.80;107656;1250;108057;-65
2024/01/25 05:11:39;;;;;;;7.10;3.90;;;;;;;3.58;68.22;100727.59;107486;1251;107907;-65
2024/01/25 05:14:08;;;;;;;11.20;6.50;;;;;;;3.63;68.24;100723.88;107589;1251;97813;-65
2024/01/25 05:16:36;;;;;;;6.70;4.50;;;;;;;3.66;68.04;100711.81;107623;1255;97889;-64
2024/01/25 05:19:05;;;;;;;8.40;4.20;;;;;;;3.69;68.35;100702.79;107692;1254;111457;-64
2024/01/25 05:21:33;;;;;;;7.10;4.10;;;;;;;3.69;68.22;100695.50;107620;1251;108119;-64
2024/01/25 05:24:02;;;;;;;9.50;5.50;;;;;;;3.68;68.34;100703.56;107586;1254;107882;-64
2024/01/25 05:26:30;;;;;;;20.90;7.60;;;;;;;3.65;68.22;100710.28;107593;1251;97864;-65
2024/01/25 05:28:58;;;;;;;17.30;7.50;;;;;;;3.62;68.20;100713.67;107642;1251;98459;-66
2024/01/25 05:31:27;;;;;;;12.50;5.20;;;;;;;3.61;67.98;100722.23;107566;1254;111439;-66
2024/01/25 05:33:55;;;;;;;9.60;5.90;;;;;;;3.61;67.99;100728.08;107590;1251;108325;-65
2024/01/25 05:36:24;;;;;;;9.90;5.70;;;;;;;3.64;67.74;100732.91;107503;1254;107740;-64
2024/01/25 05:38:52;;;;;;;5.90;3.90;;;;;;;3.67;67.52;100729.17;107594;1251;97882;-65
2024/01/25 05:41:21;;;;;;;9.70;3.60;;;;;;;3.71;67.47;100724.30;107570;1251;98382;-65
2024/01/25 05:43:49;;;;;;;7.30;4.20;;;;;;;3.76;67.46;100725.77;107627;1251;110631;-67
2024/01/25 05:46:17;;;;;;;7.60;3.80;;;;;;;3.81;67.59;100719.42;107594;1251;108729;-66
2024/01/25 05:48:46;;;;;;;6.60;3.70;;;;;;;3.85;67.66;100722.18;107529;1251;107752;-65
2024/01/25 05:51:14;;;;;;;5.30;3.00;;;;;;;3.89;67.40;100716.32;107612;1251;97815;-64
2024/01/25 05:53:43;;;;;;;10.70;4.10;;;;;;;3.92;67.67;100721.23;107579;1251;97832;-64
2024/01/25 05:56:11;;;;;;;7.90;3.50;;;;;;;3.96;67.52;100725.65;107604;1251;111889;-63
2024/01/25 05:58:39;;;;;;;9.00;3.90;;;;;;;3.97;67.26;100718.45;107654;1251;107887;-64
2024/01/25 06:01:08;;;;;;;10.20;4.10;;;;;;;4.00;67.31;100720.39;107566;1256;109025;-66
2024/01/25 06:03:36;;;;;;;10.60;3.80;;;;;;;4.02;67.26;100719.39;107583;1251;97847;-65
2024/01/25 06:06:07;;;;;;;7.50;4.50;;;;;;;4.03;67.06;100725.38;107582;1251;98360;-66
2024/01/25 06:08:36;;;;;;;7.60;4.40;;;;;;;4.03;66.75;100722.70;107647;1251;111822;-67
2024/01/25 06:11:05;;;;;;;9.60;5.50;;;;;;;4.02;66.56;100720.83;107593;1251;107216;-65
2024/01/25 06:13:33;;;;;;;11.10;5.20;;;;;;;4.02;66.76;100721.54;107614;1251;107045;-65
2024/01/25 06:16:02;;;;;;;8.30;5.20;;;;;;;4.03;66.70;100719.68;107496;1251;97810;-65
2024/01/25 06:18:30;;;;;;;10.60;5.20;;;;;;;4.04;66.64;100715.36;107641;1251;97815;-65
2024/01/25 06:20:59;;;;;;;10.90;5.50;;;;;;;4.04;66.72;100718.37;107595;1251;111428;-65
2024/01/25 06:23:27;;;;;;;10.70;5.70;;;;;;;4.03;66.83;100715.23;107604;1251;108197;-65
2024/01/25 06:25:55;;;;;;;10.60;5.30;;;;;;;4.01;66.81;100713.96;107658;1251;108128;-65
2024/01/25 06:28:25;;;;;;;9.40;6.00;;;;;;;4.00;66.95;100714.55;107529;1256;97832;-65
2024/01/25 06:30:54;;;;;;;8.80;5.60;;;;;;;4.00;66.80;100714.92;107575;1254;98334;-65
2024/01/25 06:33:22;;;;;;;11.40;6.30;;;;;;;3.99;66.80;100713.21;107622;1251;111455;-66
2024/01/25 06:35:51;;;;;;;9.30;5.50;;;;;;;3.98;67.03;100710.63;107636;1251;108298;-65
2024/01/25 06:38:20;;;;;;;12.30;6.40;;;;;;;3.96;66.97;100707.68;107604;1251;108240;-64
2024/01/25 06:40:48;;;;;;;11.90;6.10;;;;;;;3.97;67.06;100705.88;107582;1250;97850;-63
2024/01/25 06:43:17;;;;;;;15.00;7.50;;;;;;;3.98;67.03;100703.17;107619;1251;98427;-65
2024/01/25 06:45:45;;;;;;;27.00;8.90;;;;;;;3.97;67.02;100703.05;107640;1251;111756;-64
2024/01/25 06:48:14;;;;;;;13.90;7.60;;;;;;;3.93;67.06;100703.79;107614;1254;108446;-62
2024/01/25 06:50:42;;;;;;;25.30;8.40;;;;;;;3.90;67.10;100703.27;107618;1254;109384;-63
2024/01/25 06:53:11;;;;;;;25.40;9.80;;;;;;;3.87;67.31;100706.14;107596;1251;97828;-64
2024/01/25 06:55:39;;;;;;;13.40;7.60;;;;;;;3.82;67.56;100707.14;107629;1251;98363;-63
2024/01/25 06:58:08;;;;;;;11.20;6.00;;;;;;;3.80;67.67;100714.20;107615;1251;111935;-66
2024/01/25 07:00:38;;;;;;;14.20;6.80;;;;;;;3.82;67.77;100716.56;107680;1254;108087;-67
2024/01/25 07:03:08;;;;;;;11.30;5.90;;;;;;;3.84;67.64;100716.60;107572;1251;108449;-64
2024/01/25 07:05:37;;;;;;;19.00;8.30;;;;;;;3.87;67.73;100709.14;107618;1251;97711;-66
2024/01/25 07:08:08;;;;;;;11.50;6.10;;;;;;;3.91;67.73;100711.73;107579;1251;97829;-65
2024/01/25 07:10:37;;;;;;;17.90;7.70;;;;;;;3.94;68.04;100712.27;107614;1251;110974;-65
2024/01/25 07:13:06;;;;;;;18.80;8.40;;;;;;;3.97;68.17;100702.52;107573;1251;108037;-65
2024/01/25 07:15:34;;;;;;;20.90;8.30;;;;;;;4.01;68.54;100701.04;107612;1251;108118;-65
2024/01/25 07:18:04;;;;;;;14.90;8.10;;;;;;;4.06;68.47;100701.24;107560;1251;97873;-65
2024/01/25 07:20:32;;;;;;;20.80;7.00;;;;;;;4.13;68.84;100702.03;107675;1251;97744;-65
2024/01/25 07:23:01;;;;;;;10.70;6.00;;;;;;;4.19;68.74;100699.68;107565;1251;110452;-65
2024/01/25 07:25:29;;;;;;;10.60;5.50;;;;;;;4.24;68.78;100696.02;107567;1254;108357;-65
2024/01/25 07:27:58;;;;;;;10.10;5.50;;;;;;;4.32;68.73;100693.90;107568;1255;107832;-65
2024/01/25 07:30:26;;;;;;;10.50;5.20;;;;;;;4.41;68.30;100686.77;107552;1251;97823;-64
2024/01/25 07:32:54;;;;;;;11.80;5.50;;;;;;;4.54;68.14;100686.33;107633;1256;97905;-65
2024/01/25 07:35:23;;;;;;;15.00;6.20;;;;;;;4.62;67.27;100682.24;107654;1251;111152;-64
2024/01/25 07:37:52;;;;;;;15.50;6.50;;;;;;;4.70;67.01;100681.52;107629;1251;108708;-64
2024/01/25 07:40:21;;;;;;;16.20;7.00;;;;;;;4.80;66.54;100679.48;107592;1251;106823;-64
2024/01/25 07:42:49;;;;;;;12.20;6.30;;;;;;;4.89;65.21;100682.98;107592;1251;97816;-65
2024/01/25 07:45:18;;;;;;;13.10;7.40;;;;;;;4.96;64.97;100681.11;107613;1255;98004;-65
2024/01/25 07:47:46;;;;;;;13.00;7.10;;;;;;;5.02;64.25;100682.67;107657;1251;111800;-66
2024/01/25 07:50:17;;;;;;;14.50;7.10;;;;;;;5.05;63.72;100680.14;107599;1251;107911;-65
2024/01/25 07:52:46;;;;;;;14.10;6.20;;;;;;;5.06;63.16;100678.85;107615;1251;108214;-64
2024/01/25 07:55:14;;;;;;;13.50;6.60;;;;;;;5.08;63.07;100671.59;107615;1250;97828;-64
2024/01/25 07:57:43;;;;;;;19.70;7.00;;;;;;;5.10;62.69;100671.14;107594;1251;97739;-64
2024/01/25 08:00:12;;;;;;;17.10;8.40;;;;;;;5.12;62.58;100674.13;107617;1251;112079;-64
2024/01/25 08:02:41;;;;;;;15.10;8.60;;;;;;;5.14;62.37;100669.60;107698;1251;107696;-64
2024/01/25 08:05:09;;;;;;;18.00;9.10;;;;;;;5.13;61.95;100669.11;107599;1251;107735;-64
2024/01/25 08:07:38;;;;;;;29.00;7.60;;;;;;;5.14;62.13;100669.39;107588;1251;97844;-64
2024/01/25 08:10:08;;;;;;;21.00;8.10;;;;;;;5.20;62.01;100669.37;107618;1256;97832;-64
2024/01/25 08:12:39;;;;;;;19.80;9.80;;;;;;;5.28;62.14;100665.44;107656;1251;112862;-65
2024/01/25 08:15:15;;;;;;;18.90;10.20;;;;;;;5.41;61.70;100663.52;107600;1251;107940;-65
2024/01/25 08:17:44;;;;;;;14.20;7.20;;;;;;;5.57;61.63;100662.44;107632;1251;108287;-65
2024/01/25 08:20:13;;;;;;;18.10;9.80;;;;;;;5.76;61.16;100667.33;107626;1251;97835;-65
2024/01/25 08:22:42;;;;;;;18.80;8.20;;;;;;;5.91;60.61;100666.30;107570;1251;97714;-64
2024/01/25 08:25:11;;;;;;;14.90;8.30;;;;;;;5.97;60.06;100669.77;107620;1251;110598;-64
2024/01/25 08:27:39;;;;;;;13.40;7.30;;;;;;;5.99;59.71;100674.85;107630;1251;107584;-65
2024/01/25 08:30:09;;;;;;;15.60;7.70;;;;;;;5.99;59.26;100676.98;107605;1251;108152;-65
2024/01/25 08:32:37;;;;;;;12.90;7.50;;;;;;;5.95;58.78;100685.23;107611;1251;97818;-66
2024/01/25 08:35:06;;;;;;;13.70;7.10;;;;;;;5.92;58.87;100687.91;107644;1251;97729;-65
2024/01/25 08:37:36;;;;;;;11.40;6.10;;;;;;;5.92;58.54;100697.13;107641;1251;110617;-65
2024/01/25 08:40:06;;;;;;;11.20;6.80;;;;;;;5.92;58.55;100709.25;107619;1251;107515;-65
2024/01/25 08:42:34;;;;;;;13.80;7.10;;;;;;;5.91;58.81;100717.70;107656;1251;108529;-65
2024/01/25 08:45:04;;;;;;;20.70;6.60;;;;;;;5.88;58.54;100716.48;106786;1251;1062705;-65
2024/01/25 08:47:33;;;;;;;12.30;6.20;;;;;;;5.89;58.53;100712.88;107627;1255;97998;-65
2024/01/25 08:50:01;;;;;;;10.60;5.40;;;;;;;5.93;58.42;100714.73;107613;1251;112162;-66
2024/01/25 08:52:30;;;;;;;13.00;6.30;;;;;;;6.00;58.26;100719.11;107622;1251;108558;-66
2024/01/25 08:54:58;;;;;;;9.20;5.30;;;;;;;6.08;58.49;100724.58;107561;1251;107722;-66
2024/01/25 08:57:26;;;;;;;6.30;3.20;;;;;;;6.15;57.91;100725.52;107584;1251;97956;-64
2024/01/25 08:59:55;;;;;;;5.80;3.20;;;;;;;6.21;57.44;100729.04;107632;1255;97847;-65
2024/01/25 09:02:26;;;;;;;5.20;3.60;;;;;;;6.23;56.46;100727.05;107610;1251;111232;-65
2024/01/25 09:04:56;;;;;;;5.10;3.60;;;;;;;6.27;56.45;100729.31;107666;1251;107118;-64
2024/01/25 09:07:24;;;;;;;8.20;4.20;;;;;;;6.30;56.19;100730.16;107659;1251;106392;-65
2024/01/25 09:09:52;;;;;;;8.40;4.20;;;;;;;6.34;56.31;100731.81;107592;1251;97837;-65
2024/01/25 09:12:21;;;;;;;10.40;4.30;;;;;;;6.37;55.82;100725.91;107651;1251;98360;-64
2024/01/25 09:14:49;;;;;;;11.60;4.60;;;;;;;6.41;55.89;100727.25;107599;1252;112212;-65
2024/01/25 09:17:21;;;;;;;12.00;5.20;;;;;;;6.44;56.14;100734.69;107618;1251;107973;-66
2024/01/25 09:19:51;;;;;;;10.30;4.70;;;;;;;6.44;56.11;100738.65;107606;1251;106906;-66
2024/01/25 09:22:20;;;;;;;8.80;4.10;;;;;;;6.44;56.59;100740.39;107623;1251;97908;-65
2024/01/25 09:24:48;;;;;;;7.10;3.90;;;;;;;6.42;56.71;100748.04;107653;1251;97904;-63
2024/01/25 09:27:17;;;;;;;5.10;3.00;;;;;;;6.40;56.98;100745.81;107599;1251;111351;-63
2024/01/25 09:29:46;;;;;;;10.80;3.90;;;;;;;6.40;57.52;100751.22;107668;1251;107850;-65
2024/01/25 09:32:14;;;;;;;9.70;4.10;;;;;;;6.34;58.75;100755.87;107555;1254;108105;-65
2024/01/25 09:34:43;;;;;;;9.50;4.10;;;;;;;6.25;60.54;100747.05;107630;1251;97742;-64
2024/01/25 09:37:11;;;;;;;5.70;3.80;;;;;;;6.24;60.95;100741.82;107584;1251;97850;-66
2024/01/25 09:39:40;;;;;;;22.70;10.50;;;;;;;6.20;61.47;100734.62;107574;1251;111690;-65
2024/01/25 09:42:10;;;;;;;5.20;2.80;;;;;;;6.13;62.26;100730.44;107641;1251;107649;-65
2024/01/25 09:44:40;;;;;;;10.60;4.10;;;;;;;6.09;62.76;100729.30;107612;1254;105632;-65
2024/01/25 09:47:09;;;;;;;8.40;3.20;;;;;;;6.10;63.00;100726.88;107569;1251;97831;-65
2024/01/25 09:49:38;;;;;;;6.60;3.50;;;;;;;6.14;63.17;100715.08;107595;1251;98359;-65
2024/01/25 09:52:12;;;;;;;7.00;3.10;;;;;;;6.20;63.31;100706.14;107594;1251;111175;-65
2024/01/25 09:54:41;;;;;;;9.30;3.60;;;;;;;6.26;63.53;100693.55;107660;1251;107733;-66
2024/01/25 09:57:22;;;;;;;9.30;3.50;;;;;;;6.36;63.64;100692.52;107601;1255;107071;-65
2024/01/25 09:59:51;;;;;;;8.40;3.30;;;;;;;6.47;63.79;100687.97;107596;1256;97845;-65
2024/01/25 10:02:19;;;;;;;7.40;3.60;;;;;;;6.53;64.01;100685.91;107631;1251;97716;-65
2024/01/25 10:04:51;;;;;;;6.40;2.90;;;;;;;6.59;64.02;100688.90;107536;1252;111695;-65
2024/01/25 10:07:40;;;;;;;6.00;2.40;;;;;;;6.66;64.23;100681.94;107692;1251;107110;-64
2024/01/25 10:10:10;;;;;;;8.60;3.10;;;;;;;6.77;64.25;100684.71;107593;1251;107499;-65
2024/01/25 10:12:41;;;;;;;9.80;3.20;;;;;;;6.86;64.41;100671.95;107663;1251;98466;-64
2024/01/25 10:15:10;;;;;;;9.00;3.60;;;;;;;6.97;64.47;100666.64;107547;1254;99075;-65
2024/01/25 10:17:39;;;;;;;9.30;3.90;;;;;;;7.07;64.62;100664.86;107562;1251;111443;-66
2024/01/25 10:20:31;;;;;;;5.80;3.00;;;;;;;7.19;64.02;100663.98;107570;1251;107668;-65
2024/01/25 10:23:01;;;;;;;6.30;3.50;;;;;;;7.25;63.56;100659.20;107621;1251;109367;-64
2024/01/25 10:25:29;;;;;;;6.70;3.30;;;;;;;7.34;62.92;100652.48;107527;1251;97887;-65
2024/01/25 10:27:58;;;;;;;9.20;3.40;;;;;;;7.43;62.65;100651.40;107582;1251;97725;-65
2024/01/25 10:30:27;;;;;;;8.50;3.30;;;;;;;7.50;62.16;100646.26;107567;1251;111670;-63
2024/01/25 10:32:58;;;;;;;13.00;4.20;;;;;;;7.60;62.50;100642.45;107561;1254;109043;-64
2024/01/25 10:35:27;;;;;;;32.80;18.30;;;;;;;7.72;61.76;100640.41;107604;1252;105793;-65
2024/01/25 10:37:57;;;;;;;22.30;12.70;;;;;;;7.80;60.81;100640.88;107610;1251;97930;-65
2024/01/25 10:40:29;;;;;;;11.10;4.30;;;;;;;7.83;59.43;100635.45;107612;1251;99135;-65
2024/01/25 10:42:58;;;;;;;7.80;4.40;;;;;;;7.81;58.30;100634.69;107581;1256;111778;-65
2024/01/25 10:45:26;;;;;;;9.10;4.40;;;;;;;7.81;58.65;100633.45;107606;1251;109349;-65
2024/01/25 10:47:54;;;;;;;8.70;4.00;;;;;;;7.86;58.91;100638.80;107531;1251;107037;-64
2024/01/25 10:50:25;;;;;;;5.70;3.50;;;;;;;7.92;58.83;100631.90;107583;1255;97830;-65
2024/01/25 10:52:56;;;;;;;7.60;3.60;;;;;;;7.96;58.14;100626.42;107671;1253;97921;-65
2024/01/25 10:55:25;;;;;;;7.40;3.40;;;;;;;8.03;57.13;100623.36;107636;1251;110982;-65
2024/01/25 10:57:54;;;;;;;5.30;2.60;;;;;;;8.11;56.74;100617.02;107591;1251;107809;-64
2024/01/25 11:00:22;;;;;;;9.60;5.40;;;;;;;8.21;55.97;100619.56;107580;1251;108803;-64
2024/01/25 11:02:51;;;;;;;4.60;2.90;;;;;;;8.33;55.63;100615.22;107618;1251;97911;-64
2024/01/25 11:05:20;;;;;;;7.70;3.60;;;;;;;8.67;55.52;100618.73;107669;1257;97802;-64
2024/01/25 11:07:50;;;;;;;9.40;3.30;;;;;;;9.15;54.24;100622.21;107623;1251;111690;-64
2024/01/25 11:10:21;;;;;;;8.50;3.70;;;;;;;9.52;53.12;100623.10;107553;1251;108603;-67
2024/01/25 11:13:00;;;;;;;8.50;3.50;;;;;;;9.63;52.54;100619.61;107581;1251;107662;-65
2024/01/25 11:15:34;;;;;;;4.90;2.80;;;;;;;9.75;51.81;100615.65;107636;1251;97843;-64
2024/01/25 11:18:06;;;;;;;;;;;;;;;9.99;51.17;100606.36;107622;1251;97870;-65
2024/01/25 11:20:36;;;;;;;4.60;2.50;;;;;;;10.52;50.44;100606.52;107613;1255;112171;-65